Terminal Aerodrome Forecast
Issued by NWS

Home | Current Version | Previous Version | Text Only | Print | Product List | Glossary On
Versions: 1 2 3 4 5 6 7 8 9 10 11 12 13 14 15 16 17
350
FTUS46 KSEW 291720
TAFCLM
TAF
KCLM 291720Z 2918/3018 VRB04KT P6SM SKC
     FM291900 30008KT P6SM SKC
     FM300000 30014KT P6SM SCT040 SCT200
     FM300900 28007KT P6SM BKN015
     FM301700 30009KT P6SM SCT020 SCT250=

USA.gov is the U.S. government's official web portal to all federal, state and local government web resources and services.